Time;durP1;ratioP1;P1;durP2;ratioP2;P2;SDS_P1;SDS_P2;PMS_P1;PMS_P2;Temp;Humidity;BMP_temperature;BMP_pressure;BME280_temperature;BME280_humidity;BME280_pressure;Samples;Min_cycle;Max_cycle;Signal;HPM_P1;HPM_P2
2022/11/26 00:02:16;;;;;;;19.73;15.37;;;;;;;6.63;100.00;101646.53;4992236;28;20325;-57
2022/11/26 00:04:44;;;;;;;19.77;13.90;;;;;;;6.61;100.00;101644.69;4983386;28;20239;-56
2022/11/26 00:07:11;;;;;;;17.37;14.73;;;;;;;6.65;100.00;101650.03;4984016;28;20310;-56
2022/11/26 00:09:38;;;;;;;23.33;15.97;;;;;;;6.65;100.00;101650.03;4986504;28;20243;-56
2022/11/26 00:12:14;;;;;;;21.77;15.23;;;;;;;6.64;100.00;101648.28;4982485;28;20313;-56
2022/11/26 00:14:41;;;;;;;21.40;15.37;;;;;;;6.65;100.00;101650.03;5004268;28;20625;-56
2022/11/26 00:17:08;;;;;;;24.40;15.57;;;;;;;6.63;100.00;101654.34;4991726;28;20234;-56
2022/11/26 00:19:35;;;;;;;20.90;15.03;;;;;;;6.64;100.00;101653.50;4990576;28;20241;-56
2022/11/26 00:22:03;;;;;;;24.07;16.97;;;;;;;6.67;100.00;101657.94;4990191;28;20233;-55
2022/11/26 00:24:30;;;;;;;25.73;15.37;;;;;;;6.65;100.00;101659.59;5004957;28;20233;-55
2022/11/26 00:26:58;;;;;;;21.90;15.53;;;;;;;6.64;100.00;101658.72;4989202;28;20239;-55
2022/11/26 00:29:24;;;;;;;25.60;16.63;;;;;;;6.66;100.00;101662.25;4978597;28;20234;-56
2022/11/26 00:31:51;;;;;;;24.03;15.30;;;;;;;6.66;100.00;101657.03;4987145;28;20341;-55
2022/11/26 00:34:17;;;;;;;23.17;16.33;;;;;;;6.60;100.00;101651.66;4990203;28;20244;-56
2022/11/26 00:36:44;;;;;;;26.00;16.03;;;;;;;6.67;100.00;101660.56;4997747;28;20237;-55
2022/11/26 00:39:15;;;;;;;21.57;16.90;;;;;;;6.66;100.00;101667.47;4992963;28;20321;-56
2022/11/26 00:41:43;;;;;;;28.93;16.90;;;;;;;6.67;100.00;101668.38;4997130;28;20849;-55
2022/11/26 00:44:17;;;;;;;23.43;15.80;;;;;;;6.64;100.00;101671.78;4999318;28;20229;-55
2022/11/26 00:46:43;;;;;;;25.60;16.93;;;;;;;6.68;100.00;101678.84;4996560;28;20236;-55
2022/11/26 00:49:10;;;;;;;22.87;16.37;;;;;;;6.67;100.00;101669.25;5000841;28;20719;-56
2022/11/26 00:51:37;;;;;;;19.87;13.60;;;;;;;6.69;100.00;101670.16;4997139;28;20269;-56
2022/11/26 00:54:04;;;;;;;20.50;14.50;;;;;;;6.68;100.00;101676.22;4997390;28;20738;-55
2022/11/26 00:56:32;;;;;;;21.63;16.00;;;;;;;6.67;100.00;101677.09;5001862;28;20243;-57
2022/11/26 00:58:58;;;;;;;24.33;14.10;;;;;;;6.69;100.00;101679.72;4998407;28;20221;-60
2022/11/26 01:01:27;;;;;;;20.07;14.23;;;;;;;6.68;100.00;101680.56;4992058;28;20294;-61
2022/11/26 01:03:54;;;;;;;23.67;15.53;;;;;;;6.64;100.00;101683.94;4999184;28;20229;-55
2022/11/26 01:06:23;;;;;;;23.87;16.00;;;;;;;6.62;100.00;101686.47;4995498;28;20239;-56
2022/11/26 01:08:49;;;;;;;26.33;14.80;;;;;;;6.64;100.00;101694.38;5010158;28;20222;-55
2022/11/26 01:11:17;;;;;;;23.50;15.40;;;;;;;6.64;100.00;101704.81;5004275;28;20809;-60
2022/11/26 01:13:46;;;;;;;20.33;15.03;;;;;;;6.66;100.00;101698.78;5003857;28;20685;-56
2022/11/26 01:16:19;;;;;;;19.33;13.83;;;;;;;6.68;100.00;101704.94;5002345;28;20243;-54
2022/11/26 01:18:46;;;;;;;22.93;16.77;;;;;;;6.72;100.00;101712.88;5007224;28;20240;-56
2022/11/26 01:21:13;;;;;;;24.67;15.87;;;;;;;6.72;100.00;101712.88;5001780;28;20328;-54
2022/11/26 01:23:39;;;;;;;24.20;16.50;;;;;;;6.68;100.00;101712.78;5009664;28;20293;-55
2022/11/26 01:26:06;;;;;;;22.20;15.23;;;;;;;6.68;100.00;101712.78;4995468;28;20237;-55
2022/11/26 01:28:33;;;;;;;21.80;13.93;;;;;;;6.69;100.00;101717.13;5008642;28;21226;-54
2022/11/26 01:31:01;;;;;;;25.47;15.87;;;;;;;6.68;100.00;101718.00;4997892;28;20244;-55
2022/11/26 01:33:28;;;;;;;20.30;14.60;;;;;;;6.68;100.00;101730.16;5000548;28;20297;-54
2022/11/26 01:35:54;;;;;;;33.53;14.93;;;;;;;6.69;100.00;101724.97;5010048;28;20320;-54
2022/11/26 01:38:21;;;;;;;19.90;14.27;;;;;;;6.68;100.00;101735.38;5011488;28;20301;-54
2022/11/26 01:41:02;;;;;;;26.77;15.67;;;;;;;6.70;100.00;101731.06;5012035;28;20252;-56
2022/11/26 01:43:30;;;;;;;23.93;14.27;;;;;;;6.68;100.00;101722.31;5011402;28;20226;-55
2022/11/26 01:45:56;;;;;;;17.33;14.47;;;;;;;6.66;100.00;101735.31;5015946;28;20268;-54
2022/11/26 01:48:28;;;;;;;27.50;17.33;;;;;;;6.68;100.00;101725.81;5007563;28;20252;-54
2022/11/26 01:50:59;;;;;;;26.93;15.63;;;;;;;6.68;100.00;101736.25;5008597;28;20232;-53
2022/11/26 01:53:39;;;;;;;23.93;15.70;;;;;;;6.72;100.00;101734.63;5005153;28;20264;-54
2022/11/26 01:56:13;;;;;;;28.53;18.53;;;;;;;6.73;100.00;101735.50;5000466;28;20238;-54
2022/11/26 01:58:42;;;;;;;29.07;17.47;;;;;;;6.65;100.00;101738.75;4994655;28;20313;-54
2022/11/26 02:01:10;;;;;;;31.63;17.93;;;;;;;6.64;100.00;101737.00;4998259;28;20871;-56
2022/11/26 02:03:41;;;;;;;25.60;15.67;;;;;;;6.63;100.00;101745.69;5001011;28;20230;-54
2022/11/26 02:06:11;;;;;;;27.27;15.47;;;;;;;6.64;100.00;101743.94;4979162;28;21357;-54
2022/11/26 02:08:38;;;;;;;24.20;15.90;;;;;;;6.65;100.00;101751.81;4977639;28;20613;-54
2022/11/26 02:11:15;;;;;;;28.23;16.43;;;;;;;6.65;100.00;101749.19;4984966;28;20321;-54
2022/11/26 02:13:41;;;;;;;23.17;16.70;;;;;;;6.71;100.00;101752.84;4990555;28;20229;-54
2022/11/26 02:16:12;;;;;;;25.97;14.80;;;;;;;6.71;100.00;101760.69;5005539;28;20328;-55
2022/11/26 02:18:42;;;;;;;34.87;18.47;;;;;;;6.67;100.00;101757.97;4996107;28;20243;-55
2022/11/26 02:21:14;;;;;;;29.67;17.10;;;;;;;6.64;100.00;101765.72;4989771;28;20250;-54
2022/11/26 02:23:57;;;;;;;28.87;17.93;;;;;;;6.68;100.00;101766.69;5000553;28;20329;-54
2022/11/26 02:27:01;;;;;;;24.20;14.27;;;;;;;6.69;100.00;101776.28;5000139;28;20304;-54
2022/11/26 02:29:58;;;;;;;29.03;16.93;;;;;;;6.68;100.00;101780.63;5001002;28;20236;-55
2022/11/26 02:32:30;;;;;;;30.47;17.90;;;;;;;6.67;100.00;101781.47;4950788;28;20368;-53
2022/11/26 02:35:02;;;;;;;23.07;16.10;;;;;;;6.73;100.00;101785.09;5001737;28;20251;-54
2022/11/26 02:37:32;;;;;;;30.13;17.07;;;;;;;6.74;100.00;101786.84;4998327;28;20233;-56
2022/11/26 02:39:58;;;;;;;27.97;16.97;;;;;;;6.69;100.00;101785.00;4995546;28;20950;-56
2022/11/26 02:42:27;;;;;;;26.37;17.67;;;;;;;6.71;100.00;101778.97;4998450;28;20321;-56
2022/11/26 02:44:55;;;;;;;23.73;16.83;;;;;;;6.66;100.00;101782.28;4996864;28;20660;-56
2022/11/26 02:47:23;;;;;;;30.60;19.00;;;;;;;6.68;100.00;101791.06;5000172;28;20237;-55
2022/11/26 02:49:51;;;;;;;32.07;19.00;;;;;;;6.72;100.00;101785.94;5002020;28;20221;-54
2022/11/26 02:52:18;;;;;;;34.93;22.13;;;;;;;6.75;100.00;101791.25;4999802;28;20316;-55
2022/11/26 02:54:46;;;;;;;32.47;18.80;;;;;;;6.74;100.00;101786.84;4997223;28;20255;-54
2022/11/26 02:57:14;;;;;;;29.90;17.83;;;;;;;6.73;100.00;101787.69;5005172;28;20317;-55
2022/11/26 02:59:41;;;;;;;37.53;21.07;;;;;;;6.68;100.00;101785.84;4997668;28;20684;-54
2022/11/26 03:02:11;;;;;;;29.70;19.10;;;;;;;6.71;100.00;101789.41;4994973;28;20309;-56
2022/11/26 03:04:41;;;;;;;28.90;20.40;;;;;;;6.74;100.00;101786.84;4995899;28;20244;-55
2022/11/26 03:07:09;;;;;;;36.00;19.97;;;;;;;6.76;100.00;101774.75;4986770;28;20261;-54
2022/11/26 03:09:40;;;;;;;39.07;22.07;;;;;;;6.76;100.00;101783.47;4984195;28;20241;-55
2022/11/26 03:12:07;;;;;;;30.93;18.77;;;;;;;6.78;100.00;101786.13;4987361;28;20316;-56
2022/11/26 03:14:34;;;;;;;38.77;19.17;;;;;;;6.82;100.00;101793.22;4984283;28;20353;-56
2022/11/26 03:17:00;;;;;;;35.00;21.63;;;;;;;6.81;100.00;101792.34;4986063;28;20258;-58
2022/11/26 03:19:27;;;;;;;35.03;18.60;;;;;;;6.87;100.00;101791.63;4976805;28;20744;-54
2022/11/26 03:21:53;;;;;;;30.03;20.63;;;;;;;6.85;100.00;101799.44;4984408;28;20699;-55
2022/11/26 03:24:21;;;;;;;37.07;20.20;;;;;;;6.94;100.00;101804.03;4986892;28;20730;-60
2022/11/26 03:26:50;;;;;;;36.30;20.87;;;;;;;6.90;100.00;101807.38;4980540;28;20314;-55
2022/11/26 03:29:17;;;;;;;32.40;21.30;;;;;;;6.88;100.00;101809.06;4988566;28;20347;-54
2022/11/26 03:31:43;;;;;;;33.60;19.60;;;;;;;6.91;100.00;101809.16;4986817;28;20317;-55
2022/11/26 03:34:10;;;;;;;34.50;21.67;;;;;;;6.89;100.00;101816.06;4974955;28;20259;-54
2022/11/26 03:36:37;;;;;;;38.07;20.43;;;;;;;6.93;100.00;101823.16;4981972;28;20297;-55
2022/11/26 03:39:03;;;;;;;35.77;20.90;;;;;;;6.95;100.00;101821.50;4980167;28;20238;-60
2022/11/26 03:41:32;;;;;;;34.53;20.87;;;;;;;6.94;100.00;101827.53;4987018;28;20609;-54
2022/11/26 03:43:58;;;;;;;30.57;20.80;;;;;;;6.94;100.00;101819.69;4998704;28;20965;-53
2022/11/26 03:46:25;;;;;;;40.43;22.40;;;;;;;6.96;100.00;101818.03;5001620;28;20237;-55
2022/11/26 03:48:52;;;;;;;50.97;22.53;;;;;;;7.03;100.00;101820.00;5000409;28;20336;-54
2022/11/26 03:51:18;;;;;;;37.70;22.47;;;;;;;7.07;100.00;101827.06;4993806;28;20336;-56
2022/11/26 03:53:45;;;;;;;45.87;22.40;;;;;;;7.03;100.00;101835.66;5001642;28;20283;-54
2022/11/26 03:56:12;;;;;;;48.87;23.97;;;;;;;6.98;100.00;101832.00;4994028;28;20341;-54
2022/11/26 03:58:40;;;;;;;39.23;20.57;;;;;;;7.04;100.00;101836.53;4992072;28;20233;-56
2022/11/26 04:01:08;;;;;;;38.53;22.00;;;;;;;7.03;100.00;101835.66;5003307;28;20408;-54
2022/11/26 04:03:34;;;;;;;47.50;22.87;;;;;;;7.04;100.00;101840.03;5003497;28;20233;-55
2022/11/26 04:06:01;;;;;;;35.23;22.70;;;;;;;7.05;100.00;101851.34;4997757;28;20320;-54
2022/11/26 04:08:28;;;;;;;40.97;20.53;;;;;;;7.06;100.00;101845.31;4995405;28;20241;-53
2022/11/26 04:10:54;;;;;;;32.57;20.53;;;;;;;7.03;100.00;101848.72;4987776;28;20312;-54
2022/11/26 04:13:21;;;;;;;36.60;23.77;;;;;;;7.06;100.00;101859.25;4985259;28;20229;-54
2022/11/26 04:15:49;;;;;;;38.63;21.77;;;;;;;7.03;100.00;101856.53;4978454;28;20234;-53
2022/11/26 04:18:16;;;;;;;40.20;21.67;;;;;;;6.99;100.00;101859.91;4979770;28;20742;-53
2022/11/26 04:20:43;;;;;;;32.70;20.13;;;;;;;7.07;100.00;101868.84;4983903;28;20287;-53
2022/11/26 04:23:10;;;;;;;42.80;21.87;;;;;;;7.06;100.00;101869.69;4978408;28;20631;-54
2022/11/26 04:25:37;;;;;;;34.67;20.50;;;;;;;7.14;100.00;101865.59;4980464;28;20234;-54
2022/11/26 04:28:03;;;;;;;35.47;23.17;;;;;;;7.08;100.00;101873.22;4979893;28;20981;-54
2022/11/26 04:30:30;;;;;;;35.07;20.73;;;;;;;7.09;100.00;101871.50;4993028;28;20296;-53
2022/11/26 04:32:58;;;;;;;35.30;22.57;;;;;;;7.20;100.00;101884.94;4986671;28;20312;-53
2022/11/26 04:35:25;;;;;;;31.97;19.23;;;;;;;7.14;100.00;101886.50;4997498;28;20237;-55
2022/11/26 04:37:52;;;;;;;32.00;20.47;;;;;;;7.13;100.00;101889.06;4991686;28;20237;-53
2022/11/26 04:40:19;;;;;;;32.73;20.33;;;;;;;7.12;100.00;101893.38;4997329;28;20240;-54
2022/11/26 04:42:46;;;;;;;35.87;19.60;;;;;;;7.14;100.00;101889.09;4998990;28;20316;-53
2022/11/26 04:45:12;;;;;;;37.27;19.67;;;;;;;7.21;100.00;101892.78;4993168;28;20279;-54
2022/11/26 04:47:39;;;;;;;37.23;21.37;;;;;;;7.20;100.00;101895.38;4994479;28;20311;-55
2022/11/26 04:50:09;;;;;;;34.47;19.23;;;;;;;7.21;100.00;101900.63;4989520;28;20234;-54
2022/11/26 04:52:35;;;;;;;29.10;19.03;;;;;;;7.17;100.00;101897.03;4989467;28;20745;-54
2022/11/26 04:55:02;;;;;;;29.43;18.80;;;;;;;7.16;100.00;101899.63;4993554;28;20248;-54
2022/11/26 04:57:29;;;;;;;29.80;19.03;;;;;;;7.18;100.00;101904.03;4984464;28;20731;-55
2022/11/26 04:59:56;;;;;;;27.97;18.87;;;;;;;7.18;100.00;101917.09;4979935;28;20320;-54
2022/11/26 05:02:22;;;;;;;29.47;19.20;;;;;;;7.22;100.00;101919.78;4997437;28;20836;-54
2022/11/26 05:04:49;;;;;;;30.60;17.57;;;;;;;7.23;100.00;101916.34;4989129;28;20395;-55
2022/11/26 05:07:18;;;;;;;29.73;18.83;;;;;;;7.20;100.00;101926.72;4993988;28;20233;-53
2022/11/26 05:09:45;;;;;;;28.77;17.93;;;;;;;7.19;100.00;101933.63;4984205;28;20249;-53
2022/11/26 05:12:12;;;;;;;31.37;17.43;;;;;;;7.20;100.00;101937.16;4985173;28;20749;-53
2022/11/26 05:14:39;;;;;;;25.83;17.87;;;;;;;7.23;100.00;101935.53;5002316;28;20237;-53
2022/11/26 05:17:06;;;;;;;23.63;16.07;;;;;;;7.32;100.00;101938.41;4999310;28;20316;-55
2022/11/26 05:19:33;;;;;;;27.60;17.03;;;;;;;7.18;100.00;101951.03;4992738;28;20254;-54
2022/11/26 05:21:59;;;;;;;28.03;17.23;;;;;;;7.24;100.00;101939.91;4991301;28;20233;-53
2022/11/26 05:24:28;;;;;;;29.07;17.27;;;;;;;7.21;100.00;101945.03;4997382;28;20749;-54
2022/11/26 05:26:55;;;;;;;24.63;16.70;;;;;;;7.21;100.00;101949.38;4997251;28;20441;-53
2022/11/26 05:29:22;;;;;;;25.33;15.67;;;;;;;7.21;100.00;101954.59;4996485;28;20233;-53
2022/11/26 05:31:49;;;;;;;26.87;16.03;;;;;;;7.21;100.00;101957.22;4996366;28;20236;-54
2022/11/26 05:34:16;;;;;;;24.77;16.43;;;;;;;7.16;100.00;101962.28;4994161;28;20305;-55
2022/11/26 05:36:42;;;;;;;23.67;16.53;;;;;;;7.18;100.00;101966.69;4972789;28;20242;-52
2022/11/26 05:39:09;;;;;;;25.50;15.50;;;;;;;7.28;100.00;101967.91;4974971;28;20234;-54
2022/11/26 05:41:37;;;;;;;25.23;15.47;;;;;;;7.23;100.00;101968.56;4970625;28;20233;-60
2022/11/26 05:44:05;;;;;;;21.33;14.53;;;;;;;7.20;100.00;101973.72;4978178;28;20234;-54
2022/11/26 05:46:32;;;;;;;26.77;14.33;;;;;;;7.14;100.00;101975.28;4996605;28;20235;-54
2022/11/26 05:48:58;;;;;;;20.07;15.93;;;;;;;7.16;100.00;101981.47;5000651;28;20243;-56
2022/11/26 05:51:25;;;;;;;19.53;13.77;;;;;;;7.17;100.00;101975.38;4991047;28;20234;-53
2022/11/26 05:53:52;;;;;;;20.07;13.93;;;;;;;7.09;100.00;101976.88;4979980;28;20222;-54
2022/11/26 05:56:19;;;;;;;22.07;13.63;;;;;;;7.13;100.00;101989.19;4972385;28;20234;-53
2022/11/26 05:58:47;;;;;;;22.77;13.60;;;;;;;7.12;100.00;101984.78;4988448;28;20229;-55
2022/11/26 06:01:14;;;;;;;22.63;13.67;;;;;;;7.18;100.00;101991.94;5003609;28;20239;-54
2022/11/26 06:03:41;;;;;;;23.63;14.67;;;;;;;7.30;100.00;101996.66;5004700;28;20233;-53
2022/11/26 06:06:08;;;;;;;19.83;13.63;;;;;;;7.17;100.00;101991.06;5005466;28;20257;-54
2022/11/26 06:08:35;;;;;;;25.73;13.77;;;;;;;7.18;100.00;101997.16;5001072;28;20233;-53
2022/11/26 06:11:02;;;;;;;26.60;13.10;;;;;;;7.34;100.00;102003.78;4991756;28;20226;-53
2022/11/26 06:13:29;;;;;;;20.50;13.20;;;;;;;7.28;100.00;102009.69;5005290;28;20325;-54
2022/11/26 06:15:57;;;;;;;18.70;13.27;;;;;;;7.27;100.00;102004.44;4999201;28;20241;-55
2022/11/26 06:18:24;;;;;;;21.90;13.37;;;;;;;7.22;100.00;102003.38;4997853;28;20241;-52
2022/11/26 06:20:50;;;;;;;22.40;13.27;;;;;;;7.25;100.00;102008.72;5004037;28;20229;-54
2022/11/26 06:23:17;;;;;;;18.40;12.57;;;;;;;7.17;100.00;102011.94;4993041;28;20287;-53
2022/11/26 06:25:44;;;;;;;22.50;12.57;;;;;;;7.16;100.00;102020.63;4989953;28;20238;-54
2022/11/26 06:28:11;;;;;;;21.43;12.53;;;;;;;7.16;100.00;102019.75;4993222;28;20645;-53
2022/11/26 06:30:38;;;;;;;25.53;13.67;;;;;;;7.20;100.00;102025.97;4996381;28;20644;-54
2022/11/26 06:33:06;;;;;;;19.40;12.03;;;;;;;7.16;100.00;102036.31;5004907;28;20233;-55
2022/11/26 06:35:33;;;;;;;20.00;13.13;;;;;;;7.20;100.00;102036.41;4994914;28;20230;-53
2022/11/26 06:38:00;;;;;;;19.87;13.63;;;;;;;7.18;100.00;102038.94;4994552;28;20249;-54
2022/11/26 06:40:26;;;;;;;24.63;13.23;;;;;;;7.24;100.00;102039.16;4989736;28;20248;-52
2022/11/26 06:42:54;;;;;;;23.77;12.97;;;;;;;7.30;100.00;102043.69;4991925;28;20609;-54
2022/11/26 06:45:21;;;;;;;21.43;12.53;;;;;;;7.29;100.00;102044.53;4998816;28;20225;-55
2022/11/26 06:47:49;;;;;;;21.13;11.53;;;;;;;7.29;100.00;102047.16;4990880;28;20237;-53
2022/11/26 06:50:18;;;;;;;16.00;11.60;;;;;;;7.29;100.00;102052.38;4997848;28;20233;-53
2022/11/26 06:52:45;;;;;;;23.30;11.93;;;;;;;7.30;100.00;102054.13;4977945;28;20257;-53
2022/11/26 06:55:12;;;;;;;17.03;11.63;;;;;;;7.27;100.00;102061.91;4985089;28;20249;-54
2022/11/26 06:57:38;;;;;;;25.97;13.50;;;;;;;7.27;100.00;102067.13;5001932;28;20241;-53
2022/11/26 07:00:06;;;;;;;18.43;12.37;;;;;;;7.38;100.00;102074.47;4997869;28;20674;-53
2022/11/26 07:02:33;;;;;;;15.20;11.57;;;;;;;7.36;100.00;102073.53;5003204;28;20253;-53
2022/11/26 07:05:00;;;;;;;22.43;12.43;;;;;;;7.36;100.00;102077.88;4993977;28;20241;-52
2022/11/26 07:07:29;;;;;;;19.90;13.03;;;;;;;7.30;100.00;102078.56;4997715;28;20244;-53
2022/11/26 07:09:56;;;;;;;24.47;12.90;;;;;;;7.32;100.00;102092.56;4994472;28;20600;-53
2022/11/26 07:12:23;;;;;;;19.70;11.73;;;;;;;7.30;100.00;102091.63;5001703;28;20233;-54
2022/11/26 07:14:49;;;;;;;19.50;10.87;;;;;;;7.31;100.00;102092.50;5002142;28;20287;-53
2022/11/26 07:17:16;;;;;;;19.93;10.97;;;;;;;7.31;100.00;102097.75;4997532;28;20381;-53
2022/11/26 07:19:43;;;;;;;22.67;11.90;;;;;;;7.30;100.00;102101.16;4996000;28;20280;-53
2022/11/26 07:22:10;;;;;;;21.77;11.23;;;;;;;7.35;100.00;102095.28;4993783;28;20312;-53
2022/11/26 07:24:38;;;;;;;20.60;11.40;;;;;;;7.36;100.00;102096.16;4981388;28;20773;-53
2022/11/26 07:27:05;;;;;;;16.97;11.47;;;;;;;7.45;100.00;102103.44;5000649;28;20773;-52
2022/11/26 07:29:32;;;;;;;21.90;10.97;;;;;;;7.47;100.00;102105.25;4997424;28;20279;-52
2022/11/26 07:31:59;;;;;;;21.97;11.00;;;;;;;7.47;100.00;102102.63;4999053;28;20233;-54
2022/11/26 07:34:26;;;;;;;14.53;10.13;;;;;;;7.41;100.00;102105.06;5002498;28;20232;-52
2022/11/26 07:36:52;;;;;;;24.87;12.30;;;;;;;7.45;100.00;102106.06;4998480;28;20647;-53
2022/11/26 07:39:19;;;;;;;23.37;11.20;;;;;;;7.45;100.00;102112.16;4987961;28;20230;-53
2022/11/26 07:41:48;;;;;;;20.37;11.03;;;;;;;7.40;100.00;102116.31;4996389;28;20232;-53
2022/11/26 07:44:15;;;;;;;17.20;10.40;;;;;;;7.43;100.00;102121.66;5002860;28;20229;-54
2022/11/26 07:46:42;;;;;;;20.07;10.80;;;;;;;7.46;100.00;102119.16;4996125;28;20237;-53
2022/11/26 07:49:08;;;;;;;21.90;10.17;;;;;;;7.46;100.00;102119.16;4990359;28;20242;-53
2022/11/26 07:51:35;;;;;;;18.40;11.03;;;;;;;7.48;100.00;102120.09;4997127;28;20233;-54
2022/11/26 07:54:05;;;;;;;16.17;9.83;;;;;;;7.48;100.00;102117.50;4996439;28;20238;-53
2022/11/26 07:56:32;;;;;;;16.10;9.73;;;;;;;7.44;100.00;102118.22;4993956;28;20260;-53
2022/11/26 07:59:00;;;;;;;18.33;9.20;;;;;;;7.47;100.00;102126.16;4990743;28;20238;-53
2022/11/26 08:01:28;;;;;;;16.33;10.43;;;;;;;7.50;100.00;102128.88;4999539;28;21636;-52
2022/11/26 08:03:55;;;;;;;19.17;9.87;;;;;;;7.53;100.00;102131.59;4993066;28;20583;-52
2022/11/26 08:06:23;;;;;;;15.50;8.57;;;;;;;7.52;100.00;102135.03;4988604;28;20307;-52
2022/11/26 08:08:50;;;;;;;13.97;8.23;;;;;;;7.53;100.00;102135.94;4996109;28;20728;-53
2022/11/26 08:11:19;;;;;;;13.53;10.07;;;;;;;7.52;100.00;102140.28;5000770;28;20664;-54
2022/11/26 08:13:46;;;;;;;17.23;8.27;;;;;;;7.54;100.00;102145.53;4998673;28;20241;-53
2022/11/26 08:16:15;;;;;;;14.20;9.67;;;;;;;7.55;100.00;102150.84;5000771;28;20291;-53
2022/11/26 08:18:42;;;;;;;17.73;10.30;;;;;;;7.54;100.00;102151.66;5000073;28;20234;-56
2022/11/26 08:21:09;;;;;;;15.93;8.80;;;;;;;7.51;100.00;102159.41;4999252;28;20268;-55
2022/11/26 08:23:36;;;;;;;17.50;8.63;;;;;;;7.54;100.00;102159.50;4997474;28;20277;-54
2022/11/26 08:26:07;;;;;;;18.20;10.07;;;;;;;7.60;100.00;102162.31;5000652;28;20299;-54
2022/11/26 08:28:34;;;;;;;15.67;9.30;;;;;;;7.54;100.00;102156.88;4997275;28;20703;-52
2022/11/26 08:31:02;;;;;;;16.60;8.73;;;;;;;7.54;100.00;102163.84;4994237;28;20233;-53
2022/11/26 08:33:30;;;;;;;15.67;8.23;;;;;;;7.54;100.00;102162.09;4994058;28;20321;-53
2022/11/26 08:35:57;;;;;;;11.67;8.37;;;;;;;7.59;100.00;102165.78;4998820;28;20245;-54
2022/11/26 08:38:25;;;;;;;16.90;9.20;;;;;;;7.55;100.00;102169.13;4996914;28;20230;-53
2022/11/26 08:40:53;;;;;;;12.50;8.43;;;;;;;7.56;100.00;102173.50;5002754;28;20287;-53
2022/11/26 08:43:20;;;;;;;14.80;8.03;;;;;;;7.63;100.00;102172.00;4997103;28;20750;-53
2022/11/26 08:45:53;;;;;;;14.90;7.77;;;;;;;7.65;100.00;102184.28;4998434;28;20303;-53
2022/11/26 08:48:19;;;;;;;16.67;8.50;;;;;;;7.63;100.00;102182.44;4997726;28;20237;-52
2022/11/26 08:50:48;;;;;;;14.37;8.10;;;;;;;7.60;100.00;102183.22;4998075;28;20234;-53
2022/11/26 08:53:15;;;;;;;14.60;7.77;;;;;;;7.61;100.00;102187.59;4997115;28;20325;-52
2022/11/26 08:55:42;;;;;;;15.03;8.47;;;;;;;7.74;100.00;102193.28;4994927;28;20238;-53
2022/11/26 08:58:09;;;;;;;12.77;6.97;;;;;;;7.68;100.00;102195.66;4993427;28;20294;-53
2022/11/26 09:00:36;;;;;;;13.53;7.93;;;;;;;7.77;100.00;102203.84;4992550;28;20244;-54
2022/11/26 09:03:03;;;;;;;10.87;8.27;;;;;;;7.75;100.00;102201.16;5003129;28;20244;-53
2022/11/26 09:05:30;;;;;;;14.47;7.57;;;;;;;7.74;100.00;102212.47;4997912;28;20263;-54
2022/11/26 09:07:58;;;;;;;10.53;7.97;;;;;;;7.73;100.00;102209.81;5000124;28;20233;-54
2022/11/26 09:10:25;;;;;;;15.27;7.60;;;;;;;7.75;100.00;102216.84;4997673;28;20315;-53
2022/11/26 09:12:52;;;;;;;20.50;8.13;;;;;;;7.76;100.00;102212.53;4993945;28;20229;-53
2022/11/26 09:15:19;;;;;;;19.43;8.20;;;;;;;7.76;100.00;102216.03;4994801;28;20245;-53
2022/11/26 09:17:46;;;;;;;21.90;9.50;;;;;;;7.75;100.00;102218.56;5002455;28;20239;-53
2022/11/26 09:20:13;;;;;;;12.53;6.70;;;;;;;7.75;100.00;102227.31;4991159;28;20237;-53
2022/11/26 09:22:39;;;;;;;11.53;7.20;;;;;;;7.79;100.00;102215.22;4996389;28;20240;-53
2022/11/26 09:25:09;;;;;;;14.17;7.27;;;;;;;7.85;100.00;102225.91;5004298;28;20384;-54
2022/11/26 09:27:38;;;;;;;14.10;8.10;;;;;;;7.89;100.00;102227.78;5002392;28;20252;-53
2022/11/26 09:30:06;;;;;;;13.60;6.83;;;;;;;7.85;100.00;102236.34;4997272;28;20313;-53
2022/11/26 09:32:34;;;;;;;19.87;7.97;;;;;;;7.86;100.00;102236.44;5001897;28;20310;-53
2022/11/26 09:35:00;;;;;;;10.90;6.87;;;;;;;7.88;100.00;102239.06;5001676;28;20339;-54
2022/11/26 09:37:27;;;;;;;13.93;6.80;;;;;;;7.88;100.00;102241.69;5001213;28;20478;-53
2022/11/26 09:39:54;;;;;;;15.87;6.80;;;;;;;7.79;100.00;102247.50;5003286;28;20811;-53
2022/11/26 09:42:33;;;;;;;13.23;6.80;;;;;;;7.84;100.00;102252.88;4997553;28;20232;-54
2022/11/26 09:45:09;;;;;;;12.70;7.43;;;;;;;7.88;100.00;102254.78;5000872;28;20229;-52
2022/11/26 09:47:39;;;;;;;17.13;8.13;;;;;;;7.91;100.00;102254.88;4999281;28;20229;-53
2022/11/26 09:50:17;;;;;;;12.17;6.40;;;;;;;7.84;100.00;102258.13;4999138;28;20299;-52
2022/11/26 09:52:50;;;;;;;19.50;6.33;;;;;;;7.76;100.00;102251.75;5001924;28;20225;-53
2022/11/26 09:55:19;;;;;;;10.93;6.03;;;;;;;7.79;100.00;102254.44;5005570;28;20360;-52
2022/11/26 09:57:51;;;;;;;10.97;6.10;;;;;;;7.75;100.00;102263.00;5004755;28;20285;-53
2022/11/26 10:00:23;;;;;;;10.77;5.67;;;;;;;7.88;100.00;102265.22;4998678;28;20241;-53
2022/11/26 10:02:53;;;;;;;12.53;6.33;;;;;;;7.75;100.00;102268.25;4996251;28;20237;-53
2022/11/26 10:05:20;;;;;;;16.17;5.53;;;;;;;7.77;100.00;102274.44;4995158;28;20968;-54
2022/11/26 10:07:58;;;;;;;11.97;6.53;;;;;;;7.79;100.00;102277.97;5002718;28;20245;-53
2022/11/26 10:10:28;;;;;;;13.40;5.63;;;;;;;7.77;100.00;102277.03;4985478;28;20236;-53
2022/11/26 10:13:03;;;;;;;11.37;5.67;;;;;;;7.87;100.00;102277.41;4989524;28;20229;-53
2022/11/26 10:15:36;;;;;;;14.33;5.67;;;;;;;7.83;100.00;102272.03;4991507;28;20259;-55
2022/11/26 10:18:11;;;;;;;15.40;5.83;;;;;;;7.79;100.00;102276.28;4999672;28;20241;-55
2022/11/26 10:20:50;;;;;;;10.33;5.67;;;;;;;7.82;100.00;102271.13;4999955;28;20232;-54
2022/11/26 10:23:23;;;;;;;7.53;4.57;;;;;;;7.73;100.00;102278.66;4996042;28;20304;-52
2022/11/26 10:25:51;;;;;;;12.67;6.33;;;;;;;7.70;100.00;102272.44;4999797;28;20229;-53
2022/11/26 10:28:22;;;;;;;7.87;5.00;;;;;;;7.67;100.00;102281.06;5000142;28;20238;-54
2022/11/26 10:30:56;;;;;;;11.33;5.53;;;;;;;7.59;100.00;102282.50;4998816;28;20719;-53
2022/11/26 10:33:23;;;;;;;11.33;6.07;;;;;;;7.56;100.00;102288.50;4987304;28;20233;-52
2022/11/26 10:35:50;;;;;;;12.87;7.30;;;;;;;7.52;100.00;102286.63;4990469;28;20278;-53
2022/11/26 10:38:17;;;;;;;13.33;6.53;;;;;;;7.55;100.00;102285.84;4995490;28;20256;-54
2022/11/26 10:40:44;;;;;;;10.77;5.33;;;;;;;7.52;100.00;102286.63;5000256;28;20347;-55
2022/11/26 10:43:16;;;;;;;14.90;6.47;;;;;;;7.46;100.00;102296.84;4998254;28;20230;-54
2022/11/26 10:45:46;;;;;;;10.80;5.33;;;;;;;7.47;100.00;102293.38;4993951;28;20312;-54
2022/11/26 10:48:21;;;;;;;16.40;6.23;;;;;;;7.41;100.00;102301.03;4994291;28;20281;-53
2022/11/26 10:50:57;;;;;;;10.07;6.00;;;;;;;7.42;100.00;102305.41;4995415;28;20714;-52
2022/11/26 10:53:25;;;;;;;11.33;5.57;;;;;;;7.46;100.00;102302.06;4998268;28;20891;-53
2022/11/26 10:55:54;;;;;;;10.87;6.10;;;;;;;7.50;100.00;102310.91;4995262;28;20240;-55
2022/11/26 10:58:22;;;;;;;11.27;5.63;;;;;;;7.51;100.00;102310.06;4989962;28;20230;-53
2022/11/26 11:00:58;;;;;;;10.17;5.87;;;;;;;7.54;100.00;102315.41;4991105;28;20264;-53
2022/11/26 11:03:27;;;;;;;13.80;5.30;;;;;;;7.59;100.00;102309.53;5000393;28;20344;-53
2022/11/26 11:06:11;;;;;;;15.57;5.03;;;;;;;7.67;100.00;102311.53;4995725;28;21011;-54
2022/11/26 11:08:38;;;;;;;10.50;5.23;;;;;;;7.64;100.00;102313.19;4992920;28;20257;-52
2022/11/26 11:11:05;;;;;;;10.90;4.93;;;;;;;7.64;100.00;102310.56;4995203;28;20341;-53
2022/11/26 11:13:41;;;;;;;7.10;5.07;;;;;;;7.62;100.00;102314.88;4993778;28;20241;-54
2022/11/26 11:16:11;;;;;;;11.00;5.40;;;;;;;7.62;100.00;102314.00;4981765;28;20675;-53
2022/11/26 11:18:38;;;;;;;10.37;4.93;;;;;;;7.67;100.00;102315.03;4993393;28;20777;-54